Time;durP1;ratioP1;P1;durP2;ratioP2;P2;SDS_P1;SDS_P2;PMS_P1;PMS_P2;Temp;Humidity;BMP_temperature;BMP_pressure;BME280_temperature;BME280_humidity;BME280_pressure;Samples;Min_cycle;Max_cycle;Signal;HPM_P1;HPM_P2
2022/02/08 00:04:09;;;;;;;9.85;8.40;;;;;;;;;;10503807;28;20302;-74
2022/02/08 00:09:11;;;;;;;13.70;8.97;;;;;;;;;;10529897;28;20028;-76
2022/02/08 00:14:11;;;;;;;11.80;6.63;;;;;;;;;;10505286;28;20020;-75
2022/02/08 00:19:11;;;;;;;10.60;7.65;;;;;;;;;;10520701;28;20047;-77
2022/02/08 00:24:12;;;;;;;6.77;5.03;;;;;;;;;;10530307;28;20027;-79
2022/02/08 00:29:13;;;;;;;14.88;8.10;;;;;;;;;;10531878;28;20027;-79
2022/02/08 00:34:13;;;;;;;11.27;8.45;;;;;;;;;;10529933;28;20024;-79
2022/02/08 00:39:13;;;;;;;7.28;6.47;;;;;;;;;;10492505;28;20020;-74
2022/02/08 00:44:23;;;;;;;11.13;5.60;;;;;;;;;;10486127;28;20030;-74
2022/02/08 00:49:30;;;;;;;7.05;6.20;;;;;;;;;;10496260;28;20476;-80
2022/02/08 00:54:32;;;;;;;7.22;6.15;;;;;;;;;;10497749;28;20044;-75
2022/02/08 00:59:32;;;;;;;8.90;6.43;;;;;;;;;;10488139;28;20094;-77
2022/02/08 01:04:33;;;;;;;6.37;5.60;;;;;;;;;;10488227;28;20885;-76
2022/02/08 01:14:38;;;;;;;6.90;5.55;;;;;;;;;;10489077;28;20025;-75
2022/02/08 01:19:46;;;;;;;6.72;5.47;;;;;;;;;;10471722;28;20050;-78
2022/02/08 01:24:48;;;;;;;8.05;4.20;;;;;;;;;;10488167;28;20028;-79
2022/02/08 01:50:21;;;;;;;6.63;5.05;;;;;;;;;;10489041;28;20128;-75
2022/02/08 01:55:21;;;;;;;8.43;5.97;;;;;;;;;;10486873;28;20020;-76
2022/02/08 02:00:22;;;;;;;8.13;6.95;;;;;;;;;;10487465;28;20060;-75
2022/02/08 02:05:22;;;;;;;8.37;6.50;;;;;;;;;;10486985;28;20178;-76
2022/02/08 02:10:23;;;;;;;10.55;6.97;;;;;;;;;;10486966;28;20266;-78
2022/02/08 02:15:24;;;;;;;9.32;5.60;;;;;;;;;;10488626;28;20025;-75
2022/02/08 02:20:24;;;;;;;8.65;7.18;;;;;;;;;;10490227;28;20032;-74
2022/02/08 02:25:26;;;;;;;11.00;5.57;;;;;;;;;;10495242;28;20384;-76
2022/02/08 02:30:27;;;;;;;6.97;5.88;;;;;;;;;;10495544;28;20021;-75
2022/02/08 02:35:28;;;;;;;7.22;5.80;;;;;;;;;;10477103;28;20029;-75
2022/02/08 02:40:31;;;;;;;7.22;6.35;;;;;;;;;;10494678;28;20028;-78
2022/02/08 02:45:31;;;;;;;8.27;7.22;;;;;;;;;;10493669;28;20035;-76
2022/02/08 02:50:31;;;;;;;9.45;7.55;;;;;;;;;;10494384;28;20032;-75
2022/02/08 02:55:33;;;;;;;8.52;7.68;;;;;;;;;;10496835;28;20039;-78
2022/02/08 03:00:50;;;;;;;10.10;7.68;;;;;;;;;;10494212;28;20051;-76
2022/02/08 03:17:33;;;;;;;9.40;8.45;;;;;;;;;;10493046;28;20036;-76
2022/02/08 03:22:07;;;;;;;8.82;7.78;;;;;;;;;;10492678;28;20020;-76
2022/02/08 03:27:07;;;;;;;8.50;7.22;;;;;;;;;;10492725;28;20488;-75
2022/02/08 03:32:08;;;;;;;9.98;8.15;;;;;;;;;;10491911;28;20020;-76
2022/02/08 03:37:08;;;;;;;9.13;8.23;;;;;;;;;;10490978;28;20056;-75
2022/02/08 03:42:17;;;;;;;9.55;8.18;;;;;;;;;;10473995;28;20023;-75
2022/02/08 03:47:19;;;;;;;7.95;6.15;;;;;;;;;;10490508;28;20050;-78
2022/02/08 03:52:23;;;;;;;15.38;8.55;;;;;;;;;;10490567;28;20017;-76
2022/02/08 03:57:25;;;;;;;9.23;6.88;;;;;;;;;;10490044;28;20082;-76
2022/02/08 04:02:40;;;;;;;7.72;5.70;;;;;;;;;;10489359;28;20055;-76
2022/02/08 04:07:48;;;;;;;9.02;6.50;;;;;;;;;;10489638;28;20111;-75
2022/02/08 04:13:02;;;;;;;7.70;6.85;;;;;;;;;;10489259;28;20091;-75
2022/02/08 04:49:20;;;;;;;8.83;5.87;;;;;;;;;;10527361;28;20495;-73
2022/02/08 05:42:08;;;;;;;11.45;7.55;;;;;;;;;;10509194;28;20017;-75
2022/02/08 05:47:09;;;;;;;13.30;8.38;;;;;;;;;;10485563;28;20545;-74
2022/02/08 05:52:32;;;;;;;9.57;7.43;;;;;;;;;;10485930;28;20020;-75
2022/02/08 05:57:30;;;;;;;9.63;5.22;;;;;;;;;;10493686;28;20063;-74
2022/02/08 06:02:30;;;;;;;9.25;7.10;;;;;;;;;;10494649;28;20132;-74
2022/02/08 06:07:31;;;;;;;7.43;6.63;;;;;;;;;;10493035;28;20117;-76
2022/02/08 06:12:32;;;;;;;7.18;6.35;;;;;;;;;;10494319;28;20036;-72
2022/02/08 06:17:32;;;;;;;9.60;7.57;;;;;;;;;;10495205;28;20037;-75
2022/02/08 06:22:33;;;;;;;8.03;6.97;;;;;;;;;;10535101;28;20339;-75
2022/02/08 06:27:33;;;;;;;9.48;6.57;;;;;;;;;;10534378;28;20035;-75
2022/02/08 06:32:34;;;;;;;12.47;6.47;;;;;;;;;;10534995;28;20035;-75
2022/02/08 06:37:37;;;;;;;9.48;6.75;;;;;;;;;;10533406;28;20023;-75
2022/02/08 06:42:38;;;;;;;9.73;8.13;;;;;;;;;;10532632;28;20475;-76
2022/02/08 06:47:39;;;;;;;10.70;8.52;;;;;;;;;;10532554;28;20088;-75
2022/02/08 06:52:39;;;;;;;10.30;6.68;;;;;;;;;;10533493;28;20396;-74
2022/02/08 07:03:15;;;;;;;9.13;4.63;;;;;;;;;;10520997;28;20048;-79
2022/02/08 07:08:15;;;;;;;18.88;7.72;;;;;;;;;;10532433;28;20032;-76
2022/02/08 07:13:16;;;;;;;9.90;7.20;;;;;;;;;;10532534;28;20388;-78
2022/02/08 07:18:16;;;;;;;12.35;7.93;;;;;;;;;;10534293;28;20028;-75
2022/02/08 07:23:16;;;;;;;7.00;6.28;;;;;;;;;;10532296;28;20032;-76
2022/02/08 07:28:16;;;;;;;9.02;6.68;;;;;;;;;;10531986;28;20020;-81
2022/02/08 07:33:18;;;;;;;9.88;7.85;;;;;;;;;;10533536;28;20051;-81
2022/02/08 07:38:22;;;;;;;9.30;7.68;;;;;;;;;;10531601;28;20107;-79
2022/02/08 07:43:23;;;;;;;7.35;5.28;;;;;;;;;;10531726;28;20028;-82
2022/02/08 07:48:23;;;;;;;10.20;5.30;;;;;;;;;;10531693;28;20020;-76
2022/02/08 07:53:27;;;;;;;8.50;5.07;;;;;;;;;;10530857;28;20027;-76
2022/02/08 07:58:29;;;;;;;12.50;5.50;;;;;;;;;;10501337;28;20412;-75
2022/02/08 08:03:29;;;;;;;10.13;6.88;;;;;;;;;;10519107;28;20052;-74
2022/02/08 08:08:30;;;;;;;10.40;6.03;;;;;;;;;;10531735;28;20076;-80
2022/02/08 08:13:37;;;;;;;9.68;6.43;;;;;;;;;;10504880;28;20025;-76
2022/02/08 08:18:57;;;;;;;8.75;6.63;;;;;;;;;;10487573;28;20036;-79
2022/02/08 08:23:58;;;;;;;9.40;6.22;;;;;;;;;;10489539;28;20391;-76
2022/02/08 08:28:58;;;;;;;10.48;6.43;;;;;;;;;;10487593;28;20025;-77
2022/02/08 08:33:59;;;;;;;12.07;8.15;;;;;;;;;;10487661;28;20024;-75
2022/02/08 08:39:01;;;;;;;10.80;7.38;;;;;;;;;;10487697;28;20017;-80
2022/02/08 08:54:21;;;;;;;8.30;7.20;;;;;;;;;;10487316;28;20024;-75
2022/02/08 08:59:22;;;;;;;11.32;7.32;;;;;;;;;;10524413;28;20032;-74
2022/02/08 09:04:29;;;;;;;10.13;6.70;;;;;;;;;;10529501;28;20036;-75
2022/02/08 09:09:31;;;;;;;8.80;6.32;;;;;;;;;;10541107;28;20012;-76
2022/02/08 09:14:51;;;;;;;11.13;6.82;;;;;;;;;;10528156;28;20032;-77
2022/02/08 09:25:52;;;;;;;12.82;7.30;;;;;;;;;;10528610;28;20012;-75
2022/02/08 09:30:43;;;;;;;9.18;4.93;;;;;;;;;;10527245;28;20024;-74
2022/02/08 09:35:46;;;;;;;11.85;5.97;;;;;;;;;;10536002;28;20042;-76
2022/02/08 09:40:47;;;;;;;9.60;6.20;;;;;;;;;;10535695;28;20031;-75
2022/02/08 09:45:48;;;;;;;13.38;6.70;;;;;;;;;;10535475;28;20012;-74
2022/02/08 09:50:50;;;;;;;11.80;7.53;;;;;;;;;;10535394;28;20050;-76
2022/02/08 09:55:50;;;;;;;10.93;6.05;;;;;;;;;;10526800;28;20114;-75
2022/02/08 10:01:01;;;;;;;11.90;5.67;;;;;;;;;;10492312;28;20157;-74
2022/02/08 10:06:01;;;;;;;3.00;2.33;;;;;;;;;;10493905;28;20055;-76
2022/02/08 10:11:10;;;;;;;5.57;4.85;;;;;;;;;;10492625;28;20078;-76
2022/02/08 10:32:16;;;;;;;7.85;2.92;;;;;;;;;;10511248;28;20020;-79
2022/02/08 10:42:36;;;;;;;3.38;2.25;;;;;;;;;;10534652;28;20495;-75
2022/02/08 10:47:40;;;;;;;4.20;2.45;;;;;;;;;;10533252;28;20441;-76
2022/02/08 10:52:43;;;;;;;8.07;2.95;;;;;;;;;;10532771;28;20079;-75
2022/02/08 10:58:01;;;;;;;3.13;2.03;;;;;;;;;;10508679;28;20032;-77
2022/02/08 11:03:06;;;;;;;5.23;2.90;;;;;;;;;;10490141;28;20084;-75
2022/02/08 11:23:33;;;;;;;3.67;1.80;;;;;;;;;;10492111;28;20547;-75
2022/02/08 11:28:47;;;;;;;7.20;2.88;;;;;;;;;;10488482;28;20024;-75
2022/02/08 11:49:46;;;;;;;6.20;3.10;;;;;;;;;;10490522;28;20025;-76
2022/02/08 12:00:21;;;;;;;7.20;3.35;;;;;;;;;;10460955;28;20420;-75
2022/02/08 12:10:39;;;;;;;9.32;4.18;;;;;;;;;;10489473;28;20028;-75
2022/02/08 12:58:23;;;;;;;5.88;2.65;;;;;;;;;;10519982;28;20020;-82
2022/02/08 13:03:46;;;;;;;8.00;2.40;;;;;;;;;;10487720;28;20055;-79
2022/02/08 14:01:56;;;;;;;2.92;1.70;;;;;;;;;;10528711;28;20150;-78
2022/02/08 15:09:51;;;;;;;;;;;;;;;;;;10539309;28;20016;-78
2022/02/08 15:14:58;;;;;;;8.35;3.03;;;;;;;;;;10527832;28;19904;-80
2022/02/08 15:20:02;;;;;;;17.67;3.53;;;;;;;;;;10539047;28;20107;-80
2022/02/08 15:25:04;;;;;;;10.63;4.55;;;;;;;;;;10531824;28;20461;-80
2022/02/08 15:30:06;;;;;;;6.68;3.38;;;;;;;;;;10531046;28;20407;-78
2022/02/08 15:35:07;;;;;;;10.05;4.97;;;;;;;;;;10532336;28;20016;-79
2022/02/08 15:40:09;;;;;;;14.63;7.22;;;;;;;;;;10533159;28;20024;-77
2022/02/08 15:45:20;;;;;;;6.57;4.28;;;;;;;;;;10532999;28;20020;-76
2022/02/08 15:51:15;;;;;;;12.30;4.88;;;;;;;;;;10533321;28;20099;-83
2022/02/08 15:55:51;;;;;;;9.45;5.43;;;;;;;;;;10531604;28;20058;-79
2022/02/08 16:57:36;;;;;;;7.63;3.72;;;;;;;;;;10493413;28;20086;-76
2022/02/08 17:02:39;;;;;;;8.60;3.97;;;;;;;;;;10488730;28;20044;-77
2022/02/08 17:07:39;;;;;;;10.55;5.93;;;;;;;;;;10494858;28;20059;-77
2022/02/08 17:12:52;;;;;;;7.55;3.67;;;;;;;;;;10532149;28;20055;-76
2022/02/08 17:50:04;;;;;;;5.20;2.42;;;;;;;;;;10534978;28;20020;-76
2022/02/08 17:55:05;;;;;;;9.35;3.38;;;;;;;;;;10540975;28;20028;-81
2022/02/08 18:00:09;;;;;;;10.65;3.30;;;;;;;;;;10541376;28;20024;-82
2022/02/08 18:05:11;;;;;;;8.48;2.88;;;;;;;;;;10524722;28;20170;-78
2022/02/08 18:10:12;;;;;;;3.88;2.20;;;;;;;;;;10513807;28;20024;-80
2022/02/08 18:15:13;;;;;;;6.35;2.40;;;;;;;;;;10497873;28;20035;-79
2022/02/08 19:07:59;;;;;;;;;;;;;;;;;;10530336;28;20411;-75
2022/02/08 19:23:21;;;;;;;9.73;4.13;;;;;;;;;;10495715;28;20097;-76
2022/02/08 19:28:21;;;;;;;4.78;3.45;;;;;;;;;;10495217;28;20078;-77
2022/02/08 19:33:22;;;;;;;9.35;2.92;;;;;;;;;;10463724;28;20463;-75
2022/02/08 19:38:26;;;;;;;6.63;3.88;;;;;;;;;;10452087;28;20183;-76
2022/02/08 19:43:26;;;;;;;8.55;4.93;;;;;;;;;;10452842;28;20549;-79
2022/02/08 19:48:26;;;;;;;8.88;4.18;;;;;;;;;;10452233;28;20078;-75
2022/02/08 19:53:30;;;;;;;6.93;4.73;;;;;;;;;;10450808;28;20096;-75
2022/02/08 19:58:31;;;;;;;14.65;4.53;;;;;;;;;;10451497;28;20013;-76
2022/02/08 20:03:35;;;;;;;7.93;5.40;;;;;;;;;;10451296;28;20021;-78
2022/02/08 20:08:36;;;;;;;11.15;4.70;;;;;;;;;;10452765;28;20017;-80
2022/02/08 20:13:36;;;;;;;6.47;4.20;;;;;;;;;;10459596;28;20016;-76
2022/02/08 20:18:36;;;;;;;7.13;4.47;;;;;;;;;;10490739;28;20025;-79
2022/02/08 20:23:37;;;;;;;7.82;5.28;;;;;;;;;;10490934;28;20024;-75
2022/02/08 20:28:49;;;;;;;7.03;3.42;;;;;;;;;;10492281;28;20498;-76
2022/02/08 20:33:50;;;;;;;4.45;2.85;;;;;;;;;;10493475;28;20028;-75
2022/02/08 20:38:50;;;;;;;11.55;3.53;;;;;;;;;;10491868;28;20170;-74
2022/02/08 20:43:50;;;;;;;9.73;3.23;;;;;;;;;;10491787;28;20182;-76
2022/02/08 20:48:51;;;;;;;9.53;3.27;;;;;;;;;;10492034;28;20035;-74
2022/02/08 20:53:53;;;;;;;6.10;2.77;;;;;;;;;;10491730;28;20032;-76
2022/02/08 21:04:06;;;;;;;4.65;2.40;;;;;;;;;;10492351;28;20081;-74
2022/02/08 21:09:07;;;;;;;14.43;3.88;;;;;;;;;;10491278;28;20032;-74
2022/02/08 21:14:08;;;;;;;8.43;3.08;;;;;;;;;;10492446;28;20404;-77
2022/02/08 21:19:09;;;;;;;5.63;2.65;;;;;;;;;;10491601;28;20013;-76
2022/02/08 21:24:10;;;;;;;4.97;2.97;;;;;;;;;;10491218;28;20043;-77
2022/02/08 21:29:50;;;;;;;3.10;2.50;;;;;;;;;;10500888;28;20039;-77
2022/02/08 21:55:57;;;;;;;7.32;3.35;;;;;;;;;;10500157;28;20044;-75
2022/02/08 22:01:00;;;;;;;9.75;3.80;;;;;;;;;;10498423;28;20025;-75
2022/02/08 22:06:00;;;;;;;6.78;2.72;;;;;;;;;;10498171;28;20556;-75
2022/02/08 22:21:15;;;;;;;6.85;3.20;;;;;;;;;;10498993;28;20028;-76
2022/02/08 22:31:25;;;;;;;7.25;2.90;;;;;;;;;;10498562;28;20020;-77
2022/02/08 22:36:39;;;;;;;7.38;3.00;;;;;;;;;;10496720;28;20036;-75
2022/02/08 22:41:54;;;;;;;7.65;3.53;;;;;;;;;;10496357;28;20052;-76
2022/02/08 22:46:57;;;;;;;4.80;2.88;;;;;;;;;;10497733;28;20029;-75
2022/02/08 22:51:59;;;;;;;9.07;3.22;;;;;;;;;;10495736;28;20021;-75
2022/02/08 22:56:59;;;;;;;5.95;2.97;;;;;;;;;;10497982;28;20032;-76
2022/02/08 23:01:59;;;;;;;5.90;3.40;;;;;;;;;;10497363;28;20090;-74
2022/02/08 23:07:01;;;;;;;11.13;3.97;;;;;;;;;;10496075;28;20036;-75
2022/02/08 23:38:13;;;;;;;8.23;4.28;;;;;;;;;;10496719;28;20464;-77
2022/02/08 23:43:17;;;;;;;14.40;5.88;;;;;;;;;;10494664;28;20080;-76
2022/02/08 23:48:30;;;;;;;9.38;5.15;;;;;;;;;;10493933;28;20388;-77
2022/02/08 23:53:42;;;;;;;11.82;4.60;;;;;;;;;;10494171;28;20032;-76
2022/02/08 23:58:45;;;;;;;11.10;6.45;;;;;;;;;;10494205;28;20472;-74
